sensor_id;sensor_type;location;lat;lon;timestamp;temperature;humidity
74376;HTU21D;62812;55.188;61.302;2023-10-08T00:02:24;11.46;78.48
74376;HTU21D;62812;55.188;61.302;2023-10-08T00:04:51;11.49;75.89
74376;HTU21D;62812;55.188;61.302;2023-10-08T00:07:18;11.55;77.40
74376;HTU21D;62812;55.188;61.302;2023-10-08T00:09:51;11.51;77.37
74376;HTU21D;62812;55.188;61.302;2023-10-08T00:12:19;11.47;79.16
74376;HTU21D;62812;55.188;61.302;2023-10-08T00:14:47;11.45;78.89
74376;HTU21D;62812;55.188;61.302;2023-10-08T00:17:19;11.48;76.62
74376;HTU21D;62812;55.188;61.302;2023-10-08T00:19:48;11.49;75.93
74376;HTU21D;62812;55.188;61.302;2023-10-08T00:22:18;11.53;77.16
74376;HTU21D;62812;55.188;61.302;2023-10-08T00:24:45;11.56;76.42
74376;HTU21D;62812;55.188;61.302;2023-10-08T00:27:13;11.55;78.99
74376;HTU21D;62812;55.188;61.302;2023-10-08T00:33:07;11.51;76.53
74376;HTU21D;62812;55.188;61.302;2023-10-08T00:35:40;11.48;78.47
74376;HTU21D;62812;55.188;61.302;2023-10-08T00:38:16;11.48;78.67
74376;HTU21D;62812;55.188;61.302;2023-10-08T00:40:47;11.45;78.17
74376;HTU21D;62812;55.188;61.302;2023-10-08T00:43:32;11.47;77.66
74376;HTU21D;62812;55.188;61.302;2023-10-08T00:46:00;11.45;79.05
74376;HTU21D;62812;55.188;61.302;2023-10-08T00:48:29;11.41;79.47
74376;HTU21D;62812;55.188;61.302;2023-10-08T00:51:02;11.43;77.31
74376;HTU21D;62812;55.188;61.302;2023-10-08T00:53:49;11.43;78.72
74376;HTU21D;62812;55.188;61.302;2023-10-08T00:56:18;11.38;80.10
74376;HTU21D;62812;55.188;61.302;2023-10-08T00:58:45;11.31;80.76
74376;HTU21D;62812;55.188;61.302;2023-10-08T01:01:15;11.27;80.82
74376;HTU21D;62812;55.188;61.302;2023-10-08T01:03:44;11.20;80.04
74376;HTU21D;62812;55.188;61.302;2023-10-08T01:06:11;11.18;80.79
74376;HTU21D;62812;55.188;61.302;2023-10-08T01:08:38;11.17;81.67
74376;HTU21D;62812;55.188;61.302;2023-10-08T01:11:18;11.13;81.04
74376;HTU21D;62812;55.188;61.302;2023-10-08T01:13:45;11.09;82.03
74376;HTU21D;62812;55.188;61.302;2023-10-08T01:16:13;11.11;81.86
74376;HTU21D;62812;55.188;61.302;2023-10-08T01:18:41;11.12;81.84
74376;HTU21D;62812;55.188;61.302;2023-10-08T01:21:11;11.08;82.42
74376;HTU21D;62812;55.188;61.302;2023-10-08T01:23:46;11.09;82.61
74376;HTU21D;62812;55.188;61.302;2023-10-08T01:26:14;11.02;81.36
74376;HTU21D;62812;55.188;61.302;2023-10-08T01:28:48;11.03;82.29
74376;HTU21D;62812;55.188;61.302;2023-10-08T01:31:15;11.04;82.13
74376;HTU21D;62812;55.188;61.302;2023-10-08T01:33:41;11.09;80.76
74376;HTU21D;62812;55.188;61.302;2023-10-08T01:36:22;11.10;81.90
74376;HTU21D;62812;55.188;61.302;2023-10-08T01:38:51;11.12;82.00
74376;HTU21D;62812;55.188;61.302;2023-10-08T01:41:18;11.01;81.85
74376;HTU21D;62812;55.188;61.302;2023-10-08T01:43:45;10.95;82.48
74376;HTU21D;62812;55.188;61.302;2023-10-08T01:46:11;10.85;82.71
74376;HTU21D;62812;55.188;61.302;2023-10-08T01:48:38;10.78;83.23
74376;HTU21D;62812;55.188;61.302;2023-10-08T01:51:05;10.73;83.55
74376;HTU21D;62812;55.188;61.302;2023-10-08T01:53:45;10.75;83.67
74376;HTU21D;62812;55.188;61.302;2023-10-08T01:56:13;10.67;83.77
74376;HTU21D;62812;55.188;61.302;2023-10-08T01:58:40;10.63;84.16
74376;HTU21D;62812;55.188;61.302;2023-10-08T02:01:06;10.55;84.41
74376;HTU21D;62812;55.188;61.302;2023-10-08T02:03:38;10.53;84.58
74376;HTU21D;62812;55.188;61.302;2023-10-08T02:06:04;10.52;84.65
74376;HTU21D;62812;55.188;61.302;2023-10-08T02:08:34;10.48;84.44
74376;HTU21D;62812;55.188;61.302;2023-10-08T02:11:01;10.49;84.16
74376;HTU21D;62812;55.188;61.302;2023-10-08T02:13:30;10.50;85.19
74376;HTU21D;62812;55.188;61.302;2023-10-08T02:16:00;10.49;85.29
74376;HTU21D;62812;55.188;61.302;2023-10-08T02:18:27;10.49;85.17
74376;HTU21D;62812;55.188;61.302;2023-10-08T02:20:55;10.53;85.42
74376;HTU21D;62812;55.188;61.302;2023-10-08T02:23:24;10.52;85.00
74376;HTU21D;62812;55.188;61.302;2023-10-08T02:25:51;10.49;84.98
74376;HTU21D;62812;55.188;61.302;2023-10-08T02:28:26;10.46;84.74
74376;HTU21D;62812;55.188;61.302;2023-10-08T02:30:57;10.43;85.32
74376;HTU21D;62812;55.188;61.302;2023-10-08T02:33:26;10.44;85.04
74376;HTU21D;62812;55.188;61.302;2023-10-08T02:35:52;10.50;84.90
74376;HTU21D;62812;55.188;61.302;2023-10-08T02:38:25;10.55;84.69
74376;HTU21D;62812;55.188;61.302;2023-10-08T02:40:53;10.64;82.68
74376;HTU21D;62812;55.188;61.302;2023-10-08T02:43:25;10.70;84.29
74376;HTU21D;62812;55.188;61.302;2023-10-08T02:46:19;10.77;82.55
74376;HTU21D;62812;55.188;61.302;2023-10-08T02:48:46;10.84;82.42
74376;HTU21D;62812;55.188;61.302;2023-10-08T02:51:13;10.87;81.18
74376;HTU21D;62812;55.188;61.302;2023-10-08T02:53:44;10.94;81.62
74376;HTU21D;62812;55.188;61.302;2023-10-08T02:56:13;10.98;81.90
74376;HTU21D;62812;55.188;61.302;2023-10-08T02:58:45;10.99;82.52
74376;HTU21D;62812;55.188;61.302;2023-10-08T03:01:25;11.04;82.50
74376;HTU21D;62812;55.188;61.302;2023-10-08T03:04:00;11.10;79.22
74376;HTU21D;62812;55.188;61.302;2023-10-08T03:06:44;11.14;80.92
74376;HTU21D;62812;55.188;61.302;2023-10-08T03:09:59;11.15;80.76
74376;HTU21D;62812;55.188;61.302;2023-10-08T03:12:39;11.16;80.59
74376;HTU21D;62812;55.188;61.302;2023-10-08T03:15:07;11.16;82.91
74376;HTU21D;62812;55.188;61.302;2023-10-08T03:17:59;11.16;83.13
74376;HTU21D;62812;55.188;61.302;2023-10-08T03:21:01;11.13;83.81
74376;HTU21D;62812;55.188;61.302;2023-10-08T03:23:55;11.15;83.67
74376;HTU21D;62812;55.188;61.302;2023-10-08T03:26:24;11.14;82.23
74376;HTU21D;62812;55.188;61.302;2023-10-08T03:28:56;11.18;83.38
74376;HTU21D;62812;55.188;61.302;2023-10-08T03:31:28;11.15;81.59
74376;HTU21D;62812;55.188;61.302;2023-10-08T03:34:19;11.16;79.88
74376;HTU21D;62812;55.188;61.302;2023-10-08T03:36:47;11.19;82.93
74376;HTU21D;62812;55.188;61.302;2023-10-08T03:39:18;11.19;79.91
74376;HTU21D;62812;55.188;61.302;2023-10-08T03:41:45;11.23;81.25
74376;HTU21D;62812;55.188;61.302;2023-10-08T03:44:26;11.26;81.10
74376;HTU21D;62812;55.188;61.302;2023-10-08T03:46:55;11.30;80.24
74376;HTU21D;62812;55.188;61.302;2023-10-08T03:49:24;11.38;80.22
74376;HTU21D;62812;55.188;61.302;2023-10-08T03:51:52;11.40;79.53
74376;HTU21D;62812;55.188;61.302;2023-10-08T03:54:18;11.49;80.58
74376;HTU21D;62812;55.188;61.302;2023-10-08T03:56:46;11.56;79.82
74376;HTU21D;62812;55.188;61.302;2023-10-08T03:59:13;11.62;78.80
74376;HTU21D;62812;55.188;61.302;2023-10-08T04:01:41;11.68;79.17
74376;HTU21D;62812;55.188;61.302;2023-10-08T04:04:11;11.73;77.95
74376;HTU21D;62812;55.188;61.302;2023-10-08T04:06:43;11.78;77.98
74376;HTU21D;62812;55.188;61.302;2023-10-08T04:09:18;11.78;77.41
74376;HTU21D;62812;55.188;61.302;2023-10-08T04:11:59;11.90;78.06
74376;HTU21D;62812;55.188;61.302;2023-10-08T04:14:34;12.13;77.85
74376;HTU21D;62812;55.188;61.302;2023-10-08T04:17:03;12.15;76.80
74376;HTU21D;62812;55.188;61.302;2023-10-08T04:19:29;12.38;76.63
74376;HTU21D;62812;55.188;61.302;2023-10-08T04:21:58;12.71;75.88
74376;HTU21D;62812;55.188;61.302;2023-10-08T04:24:27;12.93;73.99
74376;HTU21D;62812;55.188;61.302;2023-10-08T04:27:03;13.08;73.06
74376;HTU21D;62812;55.188;61.302;2023-10-08T04:29:53;13.12;73.12
74376;HTU21D;62812;55.188;61.302;2023-10-08T04:32:32;12.99;72.68
74376;HTU21D;62812;55.188;61.302;2023-10-08T04:35:08;12.91;73.21
74376;HTU21D;62812;55.188;61.302;2023-10-08T04:37:42;12.92;73.15
74376;HTU21D;62812;55.188;61.302;2023-10-08T04:40:13;12.90;72.20
74376;HTU21D;62812;55.188;61.302;2023-10-08T04:42:42;12.88;73.28
74376;HTU21D;62812;55.188;61.302;2023-10-08T04:45:15;12.91;72.69
74376;HTU21D;62812;55.188;61.302;2023-10-08T04:47:45;12.90;71.63
74376;HTU21D;62812;55.188;61.302;2023-10-08T04:50:15;12.87;71.80
74376;HTU21D;62812;55.188;61.302;2023-10-08T04:52:53;12.90;72.10
74376;HTU21D;62812;55.188;61.302;2023-10-08T04:55:28;12.89;71.32
74376;HTU21D;62812;55.188;61.302;2023-10-08T04:57:55;12.93;70.81
74376;HTU21D;62812;55.188;61.302;2023-10-08T05:00:23;12.99;71.00
74376;HTU21D;62812;55.188;61.302;2023-10-08T05:03:17;13.01;70.64
74376;HTU21D;62812;55.188;61.302;2023-10-08T05:05:50;13.03;69.19
74376;HTU21D;62812;55.188;61.302;2023-10-08T05:08:29;13.02;69.08
74376;HTU21D;62812;55.188;61.302;2023-10-08T05:10:59;13.05;68.73
74376;HTU21D;62812;55.188;61.302;2023-10-08T05:13:41;13.15;66.84
74376;HTU21D;62812;55.188;61.302;2023-10-08T05:16:32;13.16;64.68
74376;HTU21D;62812;55.188;61.302;2023-10-08T05:19:15;13.18;68.49
74376;HTU21D;62812;55.188;61.302;2023-10-08T05:22:04;13.26;62.73
74376;HTU21D;62812;55.188;61.302;2023-10-08T05:24:52;13.31;64.05
74376;HTU21D;62812;55.188;61.302;2023-10-08T05:27:38;13.26;61.58
74376;HTU21D;62812;55.188;61.302;2023-10-08T05:30:26;13.37;67.42
74376;HTU21D;62812;55.188;61.302;2023-10-08T05:33:11;13.52;64.69
74376;HTU21D;62812;55.188;61.302;2023-10-08T05:35:45;13.48;54.18
74376;HTU21D;62812;55.188;61.302;2023-10-08T05:38:13;13.35;54.29
74376;HTU21D;62812;55.188;61.302;2023-10-08T05:40:51;13.30;54.35
74376;HTU21D;62812;55.188;61.302;2023-10-08T05:43:21;13.25;54.36
74376;HTU21D;62812;55.188;61.302;2023-10-08T05:50:25;13.34;52.77
74376;HTU21D;62812;55.188;61.302;2023-10-08T05:52:52;13.18;52.30
74376;HTU21D;62812;55.188;61.302;2023-10-08T05:55:24;13.12;64.05
74376;HTU21D;62812;55.188;61.302;2023-10-08T05:57:54;13.23;59.86
74376;HTU21D;62812;55.188;61.302;2023-10-08T06:00:40;13.18;52.74
74376;HTU21D;62812;55.188;61.302;2023-10-08T06:03:16;12.96;50.46
74376;HTU21D;62812;55.188;61.302;2023-10-08T06:06:03;12.89;51.93
74376;HTU21D;62812;55.188;61.302;2023-10-08T06:08:43;12.96;53.85
74376;HTU21D;62812;55.188;61.302;2023-10-08T06:11:19;13.01;64.90
74376;HTU21D;62812;55.188;61.302;2023-10-08T06:14:06;13.22;55.15
74376;HTU21D;62812;55.188;61.302;2023-10-08T06:17:14;13.21;51.18
74376;HTU21D;62812;55.188;61.302;2023-10-08T06:20:03;13.32;59.57
74376;HTU21D;62812;55.188;61.302;2023-10-08T06:22:40;13.48;56.65
74376;HTU21D;62812;55.188;61.302;2023-10-08T06:25:08;13.46;50.34
74376;HTU21D;62812;55.188;61.302;2023-10-08T06:27:51;13.43;57.71
74376;HTU21D;62812;55.188;61.302;2023-10-08T06:30:30;13.32;51.73
74376;HTU21D;62812;55.188;61.302;2023-10-08T06:33:04;13.47;56.59
74376;HTU21D;62812;55.188;61.302;2023-10-08T06:35:30;13.56;51.62
74376;HTU21D;62812;55.188;61.302;2023-10-08T06:38:16;13.52;53.22
74376;HTU21D;62812;55.188;61.302;2023-10-08T06:40:56;13.52;60.83
74376;HTU21D;62812;55.188;61.302;2023-10-08T06:43:30;13.60;52.67
74376;HTU21D;62812;55.188;61.302;2023-10-08T06:50:25;13.60;56.68
74376;HTU21D;62812;55.188;61.302;2023-10-08T06:52:51;13.59;49.81
74376;HTU21D;62812;55.188;61.302;2023-10-08T06:55:20;13.44;50.64
74376;HTU21D;62812;55.188;61.302;2023-10-08T06:57:51;13.39;56.10
74376;HTU21D;62812;55.188;61.302;2023-10-08T07:00:18;13.50;59.16
74376;HTU21D;62812;55.188;61.302;2023-10-08T07:03:15;13.50;50.25
74376;HTU21D;62812;55.188;61.302;2023-10-08T07:05:46;13.46;49.53
74376;HTU21D;62812;55.188;61.302;2023-10-08T07:08:27;13.38;57.20
74376;HTU21D;62812;55.188;61.302;2023-10-08T07:11:03;13.38;52.31
74376;HTU21D;62812;55.188;61.302;2023-10-08T07:13:38;13.41;51.74
74376;HTU21D;62812;55.188;61.302;2023-10-08T07:16:07;13.31;54.34
74376;HTU21D;62812;55.188;61.302;2023-10-08T07:18:40;13.27;58.44
74376;HTU21D;62812;55.188;61.302;2023-10-08T07:21:17;13.29;54.04
74376;HTU21D;62812;55.188;61.302;2023-10-08T07:23:55;13.21;52.29
74376;HTU21D;62812;55.188;61.302;2023-10-08T07:26:26;13.20;52.94
74376;HTU21D;62812;55.188;61.302;2023-10-08T07:29:02;13.08;58.52
74376;HTU21D;62812;55.188;61.302;2023-10-08T07:31:36;13.00;55.68
74376;HTU21D;62812;55.188;61.302;2023-10-08T07:37:32;12.87;54.90
74376;HTU21D;62812;55.188;61.302;2023-10-08T07:39:59;12.91;58.32
74376;HTU21D;62812;55.188;61.302;2023-10-08T07:42:26;12.93;58.68
74376;HTU21D;62812;55.188;61.302;2023-10-08T07:44:52;12.97;58.57
74376;HTU21D;62812;55.188;61.302;2023-10-08T07:47:21;12.96;58.25
74376;HTU21D;62812;55.188;61.302;2023-10-08T07:49:48;12.92;55.21
74376;HTU21D;62812;55.188;61.302;2023-10-08T07:52:14;12.87;58.64
74376;HTU21D;62812;55.188;61.302;2023-10-08T07:54:44;12.88;55.49
74376;HTU21D;62812;55.188;61.302;2023-10-08T07:57:11;12.86;56.23
74376;HTU21D;62812;55.188;61.302;2023-10-08T07:59:52;12.81;58.51
74376;HTU21D;62812;55.188;61.302;2023-10-08T08:02:27;12.78;58.86
74376;HTU21D;62812;55.188;61.302;2023-10-08T08:04:55;12.81;55.36
74376;HTU21D;62812;55.188;61.302;2023-10-08T08:07:23;12.77;58.53
74376;HTU21D;62812;55.188;61.302;2023-10-08T08:09:53;12.79;58.51
74376;HTU21D;62812;55.188;61.302;2023-10-08T08:12:28;12.77;59.61
74376;HTU21D;62812;55.188;61.302;2023-10-08T08:14:54;12.79;58.36
74376;HTU21D;62812;55.188;61.302;2023-10-08T08:17:21;12.69;59.90
74376;HTU21D;62812;55.188;61.302;2023-10-08T08:19:51;12.65;61.20
74376;HTU21D;62812;55.188;61.302;2023-10-08T08:22:39;12.61;61.29
74376;HTU21D;62812;55.188;61.302;2023-10-08T08:25:11;12.65;61.75
74376;HTU21D;62812;55.188;61.302;2023-10-08T08:27:53;12.56;61.86
74376;HTU21D;62812;55.188;61.302;2023-10-08T08:30:23;12.53;62.21
74376;HTU21D;62812;55.188;61.302;2023-10-08T08:32:52;12.42;62.63
74376;HTU21D;62812;55.188;61.302;2023-10-08T08:35:20;12.35;61.32
74376;HTU21D;62812;55.188;61.302;2023-10-08T08:37:47;12.27;63.58
74376;HTU21D;62812;55.188;61.302;2023-10-08T08:40:18;12.19;63.70
74376;HTU21D;62812;55.188;61.302;2023-10-08T08:42:48;12.06;64.14
74376;HTU21D;62812;55.188;61.302;2023-10-08T08:45:19;11.97;65.59
74376;HTU21D;62812;55.188;61.302;2023-10-08T08:47:55;11.79;66.48
74376;HTU21D;62812;55.188;61.302;2023-10-08T08:50:21;11.66;67.45
74376;HTU21D;62812;55.188;61.302;2023-10-08T08:52:48;11.53;67.74
74376;HTU21D;62812;55.188;61.302;2023-10-08T08:55:16;11.43;69.20
74376;HTU21D;62812;55.188;61.302;2023-10-08T08:57:46;11.49;68.58
74376;HTU21D;62812;55.188;61.302;2023-10-08T09:00:24;11.45;68.23
74376;HTU21D;62812;55.188;61.302;2023-10-08T09:03:20;11.34;68.87
74376;HTU21D;62812;55.188;61.302;2023-10-08T09:05:57;11.15;68.16
74376;HTU21D;62812;55.188;61.302;2023-10-08T09:08:28;10.98;68.39
74376;HTU21D;62812;55.188;61.302;2023-10-08T09:11:03;11.03;71.03
74376;HTU21D;62812;55.188;61.302;2023-10-08T09:13:36;10.88;69.68
74376;HTU21D;62812;55.188;61.302;2023-10-08T09:16:12;10.88;69.07
74376;HTU21D;62812;55.188;61.302;2023-10-08T09:18:42;10.84;69.31
74376;HTU21D;62812;55.188;61.302;2023-10-08T09:21:11;10.80;68.78
74376;HTU21D;62812;55.188;61.302;2023-10-08T09:23:42;10.78;71.87
74376;HTU21D;62812;55.188;61.302;2023-10-08T09:26:11;10.73;69.61
74376;HTU21D;62812;55.188;61.302;2023-10-08T09:28:45;10.73;69.80
74376;HTU21D;62812;55.188;61.302;2023-10-08T09:31:15;10.82;69.58
74376;HTU21D;62812;55.188;61.302;2023-10-08T09:33:54;10.79;68.82
74376;HTU21D;62812;55.188;61.302;2023-10-08T09:36:22;10.87;69.49
74376;HTU21D;62812;55.188;61.302;2023-10-08T09:39:02;10.85;67.96
74376;HTU21D;62812;55.188;61.302;2023-10-08T09:41:36;10.88;70.43
74376;HTU21D;62812;55.188;61.302;2023-10-08T09:44:06;10.92;67.68
74376;HTU21D;62812;55.188;61.302;2023-10-08T09:47:07;11.08;68.70
74376;HTU21D;62812;55.188;61.302;2023-10-08T09:49:39;11.11;67.30
74376;HTU21D;62812;55.188;61.302;2023-10-08T09:52:09;11.15;67.37
74376;HTU21D;62812;55.188;61.302;2023-10-08T09:54:41;11.20;66.82
74376;HTU21D;62812;55.188;61.302;2023-10-08T09:57:10;11.31;65.62
74376;HTU21D;62812;55.188;61.302;2023-10-08T09:59:40;11.30;66.28
74376;HTU21D;62812;55.188;61.302;2023-10-08T10:02:07;11.37;65.71
74376;HTU21D;62812;55.188;61.302;2023-10-08T10:04:42;11.38;67.11
74376;HTU21D;62812;55.188;61.302;2023-10-08T10:07:11;11.41;68.51
74376;HTU21D;62812;55.188;61.302;2023-10-08T10:09:50;11.46;66.59
74376;HTU21D;62812;55.188;61.302;2023-10-08T10:12:26;11.52;64.72
74376;HTU21D;62812;55.188;61.302;2023-10-08T10:14:54;11.42;65.55
74376;HTU21D;62812;55.188;61.302;2023-10-08T10:17:38;11.32;64.82
74376;HTU21D;62812;55.188;61.302;2023-10-08T10:20:09;11.37;68.06
74376;HTU21D;62812;55.188;61.302;2023-10-08T10:22:42;11.36;66.22
74376;HTU21D;62812;55.188;61.302;2023-10-08T10:25:16;11.30;62.77
74376;HTU21D;62812;55.188;61.302;2023-10-08T10:33:48;11.04;63.93
74376;HTU21D;62812;55.188;61.302;2023-10-08T10:36:15;11.01;66.36
74376;HTU21D;62812;55.188;61.302;2023-10-08T10:38:45;10.99;63.79
74376;HTU21D;62812;55.188;61.302;2023-10-08T10:41:12;11.03;64.07
74376;HTU21D;62812;55.188;61.302;2023-10-08T10:43:39;11.12;67.17
74376;HTU21D;62812;55.188;61.302;2023-10-08T10:46:08;11.18;65.23
74376;HTU21D;62812;55.188;61.302;2023-10-08T10:48:53;11.13;62.31
74376;HTU21D;62812;55.188;61.302;2023-10-08T10:51:39;11.17;65.30
74376;HTU21D;62812;55.188;61.302;2023-10-08T10:54:08;11.10;62.93
74376;HTU21D;62812;55.188;61.302;2023-10-08T10:56:36;11.01;63.33
74376;HTU21D;62812;55.188;61.302;2023-10-08T10:59:11;10.94;63.17
74376;HTU21D;62812;55.188;61.302;2023-10-08T11:01:54;10.74;65.50
74376;HTU21D;62812;55.188;61.302;2023-10-08T11:04:45;10.75;67.46
74376;HTU21D;62812;55.188;61.302;2023-10-08T11:07:18;10.75;67.70
74376;HTU21D;62812;55.188;61.302;2023-10-08T11:09:47;10.71;67.39
74376;HTU21D;62812;55.188;61.302;2023-10-08T11:12:14;10.58;65.44
74376;HTU21D;62812;55.188;61.302;2023-10-08T11:14:47;10.48;65.43
74376;HTU21D;62812;55.188;61.302;2023-10-08T11:17:25;10.49;66.73
74376;HTU21D;62812;55.188;61.302;2023-10-08T11:19:55;10.28;67.27
74376;HTU21D;62812;55.188;61.302;2023-10-08T11:22:22;10.15;68.10
74376;HTU21D;62812;55.188;61.302;2023-10-08T11:25:20;10.11;67.55
74376;HTU21D;62812;55.188;61.302;2023-10-08T11:27:52;10.09;68.44
74376;HTU21D;62812;55.188;61.302;2023-10-08T11:30:25;9.92;68.81
74376;HTU21D;62812;55.188;61.302;2023-10-08T11:32:59;9.83;68.49
74376;HTU21D;62812;55.188;61.302;2023-10-08T11:35:26;9.67;70.17
74376;HTU21D;62812;55.188;61.302;2023-10-08T11:37:59;9.50;72.00
74376;HTU21D;62812;55.188;61.302;2023-10-08T11:40:27;9.52;72.68
74376;HTU21D;62812;55.188;61.302;2023-10-08T11:43:18;9.66;71.92
74376;HTU21D;62812;55.188;61.302;2023-10-08T11:45:44;9.53;72.42
74376;HTU21D;62812;55.188;61.302;2023-10-08T11:48:20;9.35;73.48
74376;HTU21D;62812;55.188;61.302;2023-10-08T11:51:50;9.27;73.50
74376;HTU21D;62812;55.188;61.302;2023-10-08T11:54:25;9.25;74.32
74376;HTU21D;62812;55.188;61.302;2023-10-08T11:57:32;9.22;73.51
74376;HTU21D;62812;55.188;61.302;2023-10-08T12:04:59;9.27;74.43
74376;HTU21D;62812;55.188;61.302;2023-10-08T12:07:27;9.23;74.54
74376;HTU21D;62812;55.188;61.302;2023-10-08T12:09:54;9.32;73.75
74376;HTU21D;62812;55.188;61.302;2023-10-08T12:12:21;9.22;74.06
74376;HTU21D;62812;55.188;61.302;2023-10-08T12:15:33;9.18;74.44
74376;HTU21D;62812;55.188;61.302;2023-10-08T12:18:11;9.32;74.01
74376;HTU21D;62812;55.188;61.302;2023-10-08T12:21:05;9.30;74.48
74376;HTU21D;62812;55.188;61.302;2023-10-08T12:23:41;9.26;74.58
74376;HTU21D;62812;55.188;61.302;2023-10-08T12:26:22;9.18;73.83
74376;HTU21D;62812;55.188;61.302;2023-10-08T12:28:49;9.17;73.93
74376;HTU21D;62812;55.188;61.302;2023-10-08T12:31:17;9.16;74.85
74376;HTU21D;62812;55.188;61.302;2023-10-08T12:33:51;9.18;74.49
74376;HTU21D;62812;55.188;61.302;2023-10-08T12:36:31;9.16;74.73
74376;HTU21D;62812;55.188;61.302;2023-10-08T12:39:06;9.18;74.46
74376;HTU21D;62812;55.188;61.302;2023-10-08T12:41:41;9.20;75.67
74376;HTU21D;62812;55.188;61.302;2023-10-08T12:44:12;9.16;74.14
74376;HTU21D;62812;55.188;61.302;2023-10-08T12:46:56;9.08;74.48
74376;HTU21D;62812;55.188;61.302;2023-10-08T12:49:25;9.06;74.74
74376;HTU21D;62812;55.188;61.302;2023-10-08T12:51:55;9.08;74.68
74376;HTU21D;62812;55.188;61.302;2023-10-08T12:54:25;9.08;75.04
74376;HTU21D;62812;55.188;61.302;2023-10-08T12:56:55;9.09;75.37
74376;HTU21D;62812;55.188;61.302;2023-10-08T12:59:30;9.10;74.77
74376;HTU21D;62812;55.188;61.302;2023-10-08T13:02:05;9.14;74.51
74376;HTU21D;62812;55.188;61.302;2023-10-08T13:04:37;9.10;74.94
74376;HTU21D;62812;55.188;61.302;2023-10-08T13:07:09;9.02;74.57
74376;HTU21D;62812;55.188;61.302;2023-10-08T13:09:39;8.98;75.54
74376;HTU21D;62812;55.188;61.302;2023-10-08T13:12:06;8.98;75.42
74376;HTU21D;62812;55.188;61.302;2023-10-08T13:14:35;8.97;75.57
74376;HTU21D;62812;55.188;61.302;2023-10-08T13:17:03;8.93;75.50
74376;HTU21D;62812;55.188;61.302;2023-10-08T13:19:30;8.94;75.27
74376;HTU21D;62812;55.188;61.302;2023-10-08T13:22:47;8.95;75.34
74376;HTU21D;62812;55.188;61.302;2023-10-08T13:25:17;9.02;75.41
74376;HTU21D;62812;55.188;61.302;2023-10-08T13:28:05;9.02;75.45
74376;HTU21D;62812;55.188;61.302;2023-10-08T13:30:34;9.02;75.29
74376;HTU21D;62812;55.188;61.302;2023-10-08T13:35:58;9.03;75.38
74376;HTU21D;62812;55.188;61.302;2023-10-08T13:38:26;9.06;75.47
74376;HTU21D;62812;55.188;61.302;2023-10-08T13:40:59;9.10;75.31
74376;HTU21D;62812;55.188;61.302;2023-10-08T13:44:08;9.12;75.60
74376;HTU21D;62812;55.188;61.302;2023-10-08T13:50:45;9.14;75.38
74376;HTU21D;62812;55.188;61.302;2023-10-08T13:53:16;9.11;75.60
74376;HTU21D;62812;55.188;61.302;2023-10-08T13:55:47;9.11;75.62
74376;HTU21D;62812;55.188;61.302;2023-10-08T13:58:32;9.10;75.31
74376;HTU21D;62812;55.188;61.302;2023-10-08T14:01:11;9.11;75.57
74376;HTU21D;62812;55.188;61.302;2023-10-08T14:04:15;9.16;75.46
74376;HTU21D;62812;55.188;61.302;2023-10-08T14:08:02;9.18;75.17
74376;HTU21D;62812;55.188;61.302;2023-10-08T14:11:13;9.18;75.08
74376;HTU21D;62812;55.188;61.302;2023-10-08T14:14:07;9.19;75.25
74376;HTU21D;62812;55.188;61.302;2023-10-08T14:16:38;9.18;75.30
74376;HTU21D;62812;55.188;61.302;2023-10-08T14:19:09;9.22;75.49
74376;HTU21D;62812;55.188;61.302;2023-10-08T14:21:40;9.20;75.77
74376;HTU21D;62812;55.188;61.302;2023-10-08T14:24:20;9.20;75.28
74376;HTU21D;62812;55.188;61.302;2023-10-08T14:26:48;9.19;75.82
74376;HTU21D;62812;55.188;61.302;2023-10-08T14:29:23;9.22;75.39
74376;HTU21D;62812;55.188;61.302;2023-10-08T14:31:53;9.26;75.45
74376;HTU21D;62812;55.188;61.302;2023-10-08T14:34:22;9.16;76.27
74376;HTU21D;62812;55.188;61.302;2023-10-08T14:37:08;9.19;75.43
74376;HTU21D;62812;55.188;61.302;2023-10-08T14:40:28;9.21;77.11
74376;HTU21D;62812;55.188;61.302;2023-10-08T14:43:33;9.22;77.56
74376;HTU21D;62812;55.188;61.302;2023-10-08T14:46:23;9.18;78.47
74376;HTU21D;62812;55.188;61.302;2023-10-08T14:48:53;9.31;79.49
74376;HTU21D;62812;55.188;61.302;2023-10-08T14:51:21;9.32;79.63
74376;HTU21D;62812;55.188;61.302;2023-10-08T14:53:50;9.34;79.19
74376;HTU21D;62812;55.188;61.302;2023-10-08T14:56:19;9.40;82.15
74376;HTU21D;62812;55.188;61.302;2023-10-08T14:58:48;9.41;78.02
74376;HTU21D;62812;55.188;61.302;2023-10-08T15:01:17;9.45;76.61
74376;HTU21D;62812;55.188;61.302;2023-10-08T15:03:43;9.44;76.37
74376;HTU21D;62812;55.188;61.302;2023-10-08T15:06:15;9.40;77.02
74376;HTU21D;62812;55.188;61.302;2023-10-08T15:08:43;9.44;76.79
74376;HTU21D;62812;55.188;61.302;2023-10-08T15:11:17;9.39;76.89
74376;HTU21D;62812;55.188;61.302;2023-10-08T15:14:26;9.42;76.12
74376;HTU21D;62812;55.188;61.302;2023-10-08T15:16:52;9.42;76.43
74376;HTU21D;62812;55.188;61.302;2023-10-08T15:19:19;9.42;76.18
74376;HTU21D;62812;55.188;61.302;2023-10-08T15:21:48;9.45;76.38
74376;HTU21D;62812;55.188;61.302;2023-10-08T15:24:19;9.49;76.18
74376;HTU21D;62812;55.188;61.302;2023-10-08T15:26:48;9.44;76.30
74376;HTU21D;62812;55.188;61.302;2023-10-08T15:29:15;9.48;76.50
74376;HTU21D;62812;55.188;61.302;2023-10-08T15:31:45;9.52;76.28
74376;HTU21D;62812;55.188;61.302;2023-10-08T15:34:12;9.56;76.01
74376;HTU21D;62812;55.188;61.302;2023-10-08T15:36:39;9.56;75.89
74376;HTU21D;62812;55.188;61.302;2023-10-08T15:39:06;9.52;76.05
74376;HTU21D;62812;55.188;61.302;2023-10-08T15:41:36;9.56;76.04
74376;HTU21D;62812;55.188;61.302;2023-10-08T15:44:03;9.51;76.18
74376;HTU21D;62812;55.188;61.302;2023-10-08T15:46:29;9.56;75.91
74376;HTU21D;62812;55.188;61.302;2023-10-08T15:48:57;9.56;76.01
74376;HTU21D;62812;55.188;61.302;2023-10-08T15:51:24;9.51;76.23
74376;HTU21D;62812;55.188;61.302;2023-10-08T15:53:53;9.51;76.16
74376;HTU21D;62812;55.188;61.302;2023-10-08T15:56:20;9.51;76.66
74376;HTU21D;62812;55.188;61.302;2023-10-08T15:58:47;9.52;75.97
74376;HTU21D;62812;55.188;61.302;2023-10-08T16:01:13;9.53;76.03
74376;HTU21D;62812;55.188;61.302;2023-10-08T16:03:40;9.56;76.02
74376;HTU21D;62812;55.188;61.302;2023-10-08T16:06:08;9.54;76.86
74376;HTU21D;62812;55.188;61.302;2023-10-08T16:08:35;9.52;76.44
74376;HTU21D;62812;55.188;61.302;2023-10-08T16:11:01;9.53;76.78
74376;HTU21D;62812;55.188;61.302;2023-10-08T16:13:29;9.59;75.99
74376;HTU21D;62812;55.188;61.302;2023-10-08T16:15:58;9.60;75.98
74376;HTU21D;62812;55.188;61.302;2023-10-08T16:18:25;9.59;76.24
74376;HTU21D;62812;55.188;61.302;2023-10-08T16:20:55;9.56;77.18
74376;HTU21D;62812;55.188;61.302;2023-10-08T16:23:26;9.56;76.47